createdAt,value
2018-03-16T00:00:18.031Z,920.73
2018-03-16T00:01:18.027Z,920.88
2018-03-16T00:02:18.022Z,920.83
2018-03-16T00:03:18.020Z,920.85
2018-03-16T00:04:18.016Z,920.85
2018-03-16T00:05:18.014Z,920.82
2018-03-16T00:06:18.007Z,920.85
2018-03-16T00:07:18.003Z,920.88
2018-03-16T00:08:18.001Z,920.91
2018-03-16T00:09:17.996Z,920.94
2018-03-16T00:10:17.991Z,920.89
2018-03-16T00:11:17.989Z,920.93
2018-03-16T00:12:17.984Z,920.99
2018-03-16T00:13:17.984Z,920.95
2018-03-16T00:14:17.976Z,920.98
2018-03-16T00:15:17.972Z,920.93
2018-03-16T00:16:17.969Z,920.96
2018-03-16T00:17:17.964Z,920.98
2018-03-16T00:18:17.962Z,921.06
2018-03-16T00:19:17.957Z,920.98
2018-03-16T00:20:17.951Z,921.00
2018-03-16T00:21:17.949Z,921.02
2018-03-16T00:22:17.945Z,921.02
2018-03-16T00:23:17.941Z,921.07
2018-03-16T00:24:17.936Z,921.06
2018-03-16T00:25:17.933Z,921.01
2018-03-16T00:26:17.928Z,921.00
2018-03-16T00:27:17.925Z,921.00
2018-03-16T00:28:17.921Z,921.03
2018-03-16T00:29:17.917Z,921.11
2018-03-16T00:30:17.912Z,921.14
2018-03-16T00:31:17.909Z,921.19
2018-03-16T00:32:17.906Z,921.16
2018-03-16T00:33:17.901Z,921.24
2018-03-16T00:34:17.897Z,921.24
2018-03-16T00:35:17.892Z,921.27
2018-03-16T00:36:17.887Z,921.31
2018-03-16T00:37:17.884Z,921.34
2018-03-16T00:38:17.879Z,921.39
2018-03-16T00:39:17.875Z,921.37
2018-03-16T00:40:17.871Z,921.36
2018-03-16T00:41:17.867Z,921.40
2018-03-16T00:42:17.864Z,921.42
2018-03-16T00:43:17.861Z,921.40
2018-03-16T00:44:17.855Z,921.45
2018-03-16T00:45:17.851Z,921.38
2018-03-16T00:46:17.845Z,921.46
2018-03-16T00:47:17.841Z,921.46
2018-03-16T00:48:17.837Z,921.50
2018-03-16T00:49:17.835Z,921.51
2018-03-16T00:50:17.828Z,921.55
2018-03-16T00:51:17.827Z,921.55
2018-03-16T00:52:17.820Z,921.55
2018-03-16T00:53:17.817Z,921.58
2018-03-16T00:54:17.813Z,921.59
2018-03-16T00:55:17.808Z,921.66
2018-03-16T00:56:17.806Z,921.59
2018-03-16T00:57:17.799Z,921.59
2018-03-16T00:58:17.795Z,921.58
2018-03-16T00:59:17.790Z,921.62
2018-03-16T01:00:17.787Z,921.60
2018-03-16T01:01:17.784Z,921.64
2018-03-16T01:02:17.780Z,921.61
2018-03-16T01:03:17.775Z,921.62
2018-03-16T01:04:17.771Z,921.64
2018-03-16T01:05:17.765Z,921.67
2018-03-16T01:06:17.760Z,921.65
2018-03-16T01:07:17.760Z,921.65
2018-03-16T01:08:17.752Z,921.68
2018-03-16T01:09:17.748Z,921.70
2018-03-16T01:10:17.744Z,921.70
2018-03-16T01:11:17.738Z,921.72
2018-03-16T01:12:17.739Z,921.69
2018-03-16T01:13:17.730Z,921.71
2018-03-16T01:14:17.725Z,921.73
2018-03-16T01:15:17.722Z,921.72
2018-03-16T01:16:17.717Z,921.71
2018-03-16T01:17:17.713Z,921.74
2018-03-16T01:19:17.716Z,921.71
2018-03-16T01:20:17.710Z,921.74
2018-03-16T01:21:17.709Z,921.74
2018-03-16T01:22:17.702Z,921.75
2018-03-16T01:23:17.699Z,921.73
2018-03-16T01:24:17.695Z,921.73
2018-03-16T01:25:17.690Z,921.69
2018-03-16T01:26:17.685Z,921.70
2018-03-16T01:27:17.682Z,921.67
2018-03-16T01:28:17.682Z,921.63
2018-03-16T01:29:17.672Z,921.63
2018-03-16T01:30:17.668Z,921.64
2018-03-16T01:31:17.664Z,921.59
2018-03-16T01:32:17.662Z,921.66
2018-03-16T01:33:17.657Z,921.65
2018-03-16T01:34:17.650Z,921.65
2018-03-16T01:35:17.646Z,921.65
2018-03-16T01:36:17.644Z,921.70
2018-03-16T01:37:17.641Z,921.66
2018-03-16T01:38:17.635Z,921.66
2018-03-16T01:39:17.630Z,921.63
2018-03-16T01:40:17.630Z,921.62
2018-03-16T01:41:17.622Z,921.63
2018-03-16T01:42:17.618Z,921.58
2018-03-16T01:43:17.614Z,921.66
2018-03-16T01:44:17.611Z,921.60
2018-03-16T01:45:17.607Z,921.56
2018-03-16T01:46:17.603Z,921.55
2018-03-16T01:47:17.599Z,921.56
2018-03-16T01:48:17.595Z,921.59
2018-03-16T01:49:17.591Z,921.54
2018-03-16T01:50:17.587Z,921.59
2018-03-16T01:51:17.584Z,921.64
2018-03-16T01:52:17.580Z,921.65
2018-03-16T01:53:17.577Z,921.68
2018-03-16T01:54:17.571Z,921.67
2018-03-16T01:55:17.569Z,921.63
2018-03-16T01:56:17.564Z,921.63
2018-03-16T01:57:17.561Z,921.59
2018-03-16T01:58:17.557Z,921.64
2018-03-16T01:59:17.551Z,921.63
2018-03-16T02:00:17.548Z,921.68
2018-03-16T02:01:17.546Z,921.71
2018-03-16T02:02:17.541Z,921.69
2018-03-16T02:03:17.538Z,921.67
2018-03-16T02:04:17.533Z,921.70
2018-03-16T02:05:17.529Z,921.71
2018-03-16T02:06:17.526Z,921.74
2018-03-16T02:07:17.523Z,921.78
2018-03-16T02:08:17.519Z,921.76
2018-03-16T02:09:17.514Z,921.86
2018-03-16T02:10:17.511Z,921.76
2018-03-16T02:11:17.505Z,921.74
2018-03-16T02:12:17.504Z,921.75
2018-03-16T02:13:17.500Z,921.77
2018-03-16T02:14:17.495Z,921.79
2018-03-16T02:15:17.492Z,921.77
2018-03-16T02:16:17.488Z,921.80
2018-03-16T02:17:17.485Z,921.81
2018-03-16T02:18:17.480Z,921.84
2018-03-16T02:19:17.528Z,921.74
2018-03-16T02:20:17.473Z,921.81
2018-03-16T02:21:17.469Z,921.83
2018-03-16T02:22:17.467Z,921.79
2018-03-16T02:23:17.463Z,921.76
2018-03-16T02:24:17.459Z,921.74
2018-03-16T02:25:17.456Z,921.79
2018-03-16T02:26:17.450Z,921.80
2018-03-16T02:27:17.447Z,921.78
2018-03-16T02:28:17.444Z,921.80
2018-03-16T02:29:17.439Z,921.86
2018-03-16T02:30:17.436Z,921.81
2018-03-16T02:31:17.431Z,921.78
2018-03-16T02:32:17.428Z,921.77
2018-03-16T02:33:17.425Z,921.75
2018-03-16T02:34:17.422Z,921.73
2018-03-16T02:35:17.416Z,921.71
2018-03-16T02:36:17.414Z,921.67
2018-03-16T02:37:17.410Z,921.69
2018-03-16T02:38:17.406Z,921.75
2018-03-16T02:39:17.402Z,921.71
2018-03-16T02:40:17.397Z,921.71
2018-03-16T02:41:17.395Z,921.70
2018-03-16T02:42:17.390Z,921.73
2018-03-16T02:43:17.387Z,921.72
2018-03-16T02:44:17.382Z,921.70
2018-03-16T02:45:17.381Z,921.74
2018-03-16T02:46:17.377Z,921.70
2018-03-16T02:47:17.370Z,921.72
2018-03-16T02:48:17.367Z,921.74
2018-03-16T02:49:17.364Z,921.70
2018-03-16T02:50:17.359Z,921.73
2018-03-16T02:51:17.354Z,921.69
2018-03-16T02:52:17.350Z,921.70
2018-03-16T02:53:17.350Z,921.69
2018-03-16T02:54:17.341Z,921.66
2018-03-16T02:55:17.338Z,921.63
2018-03-16T02:56:17.336Z,921.63
2018-03-16T02:57:17.332Z,921.66
2018-03-16T02:58:17.327Z,921.61
2018-03-16T02:59:17.324Z,921.64
2018-03-16T03:00:17.320Z,921.62
2018-03-16T03:01:17.316Z,921.64
2018-03-16T03:02:17.310Z,921.62
2018-03-16T03:03:17.309Z,921.63
2018-03-16T03:04:17.305Z,921.64
2018-03-16T03:05:17.300Z,921.66
2018-03-16T03:06:17.296Z,921.65
2018-03-16T03:07:17.292Z,921.63
2018-03-16T03:08:17.287Z,921.64
2018-03-16T03:09:17.284Z,921.67
2018-03-16T03:10:17.280Z,921.63
2018-03-16T03:11:17.276Z,921.66
2018-03-16T03:12:17.274Z,921.69
2018-03-16T03:13:17.269Z,921.66
2018-03-16T03:14:17.266Z,921.66
2018-03-16T03:15:17.263Z,921.67
2018-03-16T03:16:17.257Z,921.62
2018-03-16T03:17:17.254Z,921.67
2018-03-16T03:18:17.250Z,921.69
2018-03-16T03:19:17.246Z,921.67
2018-03-16T03:20:17.243Z,921.70
2018-03-16T03:21:17.243Z,921.70
2018-03-16T03:22:17.235Z,921.69
2018-03-16T03:23:17.231Z,921.68
2018-03-16T03:24:17.229Z,921.68
2018-03-16T03:25:17.225Z,921.67
2018-03-16T03:26:17.220Z,921.65
2018-03-16T03:27:17.217Z,921.65
2018-03-16T03:28:17.212Z,921.66
2018-03-16T03:29:17.209Z,921.64
2018-03-16T03:30:17.206Z,921.66
2018-03-16T03:31:17.202Z,921.68
2018-03-16T03:32:17.199Z,921.69
2018-03-16T03:33:17.197Z,921.67
2018-03-16T03:34:17.230Z,921.65
2018-03-16T03:35:17.186Z,921.66
2018-03-16T03:36:17.186Z,921.67
2018-03-16T03:37:17.180Z,921.63
2018-03-16T03:38:17.176Z,921.68
2018-03-16T03:39:17.173Z,921.70
2018-03-16T03:40:17.170Z,921.66
2018-03-16T03:41:17.165Z,921.71
2018-03-16T03:42:17.162Z,921.66
2018-03-16T03:43:17.159Z,921.69
2018-03-16T03:44:17.154Z,921.70
2018-03-16T03:45:17.150Z,921.65
2018-03-16T03:46:17.146Z,921.64
2018-03-16T03:47:17.143Z,921.65
2018-03-16T03:48:17.139Z,921.63
2018-03-16T03:49:17.136Z,921.66
2018-03-16T03:50:17.131Z,921.69
2018-03-16T03:51:17.127Z,921.67
2018-03-16T03:52:17.125Z,921.69
2018-03-16T03:53:17.122Z,921.68
2018-03-16T03:54:17.117Z,921.69
2018-03-16T03:55:17.112Z,921.69
2018-03-16T03:56:17.110Z,921.67
2018-03-16T03:57:17.107Z,921.69
2018-03-16T03:58:17.102Z,921.77
2018-03-16T03:59:17.098Z,921.69
2018-03-16T04:00:17.094Z,921.73
2018-03-16T04:01:17.091Z,921.75
2018-03-16T04:02:17.087Z,921.70
2018-03-16T04:03:17.084Z,921.70
2018-03-16T04:04:17.080Z,921.68
2018-03-16T04:05:17.075Z,921.68
2018-03-16T04:06:17.070Z,921.65
2018-03-16T04:07:17.066Z,921.66
2018-03-16T04:08:17.065Z,921.59
2018-03-16T04:09:17.059Z,921.63
2018-03-16T04:10:17.056Z,921.61
2018-03-16T04:11:17.050Z,921.60
2018-03-16T04:12:17.048Z,921.62
2018-03-16T04:13:17.044Z,921.62
2018-03-16T04:14:17.040Z,921.60
2018-03-16T04:15:17.037Z,921.61
2018-03-16T04:16:17.032Z,921.63
2018-03-16T04:17:17.031Z,921.64
2018-03-16T04:18:17.025Z,921.66
2018-03-16T04:19:17.020Z,921.63
2018-03-16T04:20:17.019Z,921.64
2018-03-16T04:21:17.014Z,921.64
2018-03-16T04:22:17.009Z,921.64
2018-03-16T04:23:17.004Z,921.62
2018-03-16T04:24:17.002Z,921.60
2018-03-16T04:25:16.998Z,921.62
2018-03-16T04:26:16.993Z,921.59
2018-03-16T04:27:16.988Z,921.62
2018-03-16T04:28:16.988Z,921.60
2018-03-16T04:29:16.983Z,921.58
2018-03-16T04:30:16.979Z,921.59
2018-03-16T04:31:16.973Z,921.58
2018-03-16T04:32:16.969Z,921.59
2018-03-16T04:33:16.965Z,921.58
2018-03-16T04:34:16.962Z,921.60
2018-03-16T04:35:16.959Z,921.55
2018-03-16T04:36:16.953Z,921.63
2018-03-16T04:37:16.951Z,921.65
2018-03-16T04:38:16.944Z,921.64
2018-03-16T04:39:16.941Z,921.68
2018-03-16T04:40:16.938Z,921.65
2018-03-16T04:41:16.934Z,921.62
2018-03-16T04:42:16.928Z,921.63
2018-03-16T04:43:16.926Z,921.64
2018-03-16T04:44:16.922Z,921.62
2018-03-16T04:45:16.919Z,921.58
2018-03-16T04:46:16.912Z,921.59
2018-03-16T04:47:16.909Z,921.60
2018-03-16T04:48:16.905Z,921.55
2018-03-16T04:49:16.905Z,921.55
2018-03-16T04:50:16.896Z,921.64
2018-03-16T04:51:16.893Z,921.65
2018-03-16T04:52:16.889Z,921.65
2018-03-16T04:53:16.887Z,921.65
2018-03-16T04:54:16.881Z,921.67
2018-03-16T04:55:16.876Z,921.58
2018-03-16T04:56:16.873Z,921.63
2018-03-16T04:57:16.869Z,921.68
2018-03-16T04:58:16.863Z,921.65
2018-03-16T04:59:16.870Z,921.67
2018-03-16T05:00:16.857Z,921.63
2018-03-16T05:01:16.854Z,921.67
2018-03-16T05:02:16.851Z,921.68
2018-03-16T05:03:16.883Z,921.69
2018-03-16T05:04:16.840Z,921.72
2018-03-16T05:05:16.836Z,921.69
2018-03-16T05:06:16.830Z,921.72
2018-03-16T05:07:16.828Z,921.70
2018-03-16T05:08:16.824Z,921.68
2018-03-16T05:09:16.819Z,921.74
2018-03-16T05:10:16.816Z,921.69
2018-03-16T05:11:16.810Z,921.70
2018-03-16T05:12:16.807Z,921.68
2018-03-16T05:13:16.802Z,921.71
2018-03-16T05:14:16.804Z,921.69
2018-03-16T05:15:16.794Z,921.70
2018-03-16T05:16:16.789Z,921.70
2018-03-16T05:17:16.786Z,921.75
2018-03-16T05:18:16.781Z,921.81
2018-03-16T05:19:16.777Z,921.76
2018-03-16T05:20:16.774Z,921.83
2018-03-16T05:21:16.768Z,921.81
2018-03-16T05:22:16.764Z,921.82
2018-03-16T05:23:16.759Z,921.81
2018-03-16T05:24:16.755Z,921.83
2018-03-16T05:25:16.753Z,921.84
2018-03-16T05:26:16.746Z,921.81
2018-03-16T05:27:16.744Z,921.82
2018-03-16T05:28:16.740Z,921.86
2018-03-16T05:29:16.735Z,921.85
2018-03-16T05:30:16.730Z,921.87
2018-03-16T05:31:16.725Z,921.88
2018-03-16T05:32:16.722Z,921.91
2018-03-16T05:33:16.718Z,921.88
2018-03-16T05:34:16.727Z,921.92
2018-03-16T05:35:16.710Z,921.95
2018-03-16T05:36:16.706Z,921.93
2018-03-16T05:37:16.700Z,921.89
2018-03-16T05:38:16.696Z,921.94
2018-03-16T05:39:16.691Z,921.99
2018-03-16T05:40:16.687Z,922.01
2018-03-16T05:41:16.683Z,921.99
2018-03-16T05:42:16.679Z,921.98
2018-03-16T05:43:16.674Z,921.98
2018-03-16T05:44:16.710Z,921.97
2018-03-16T05:45:16.666Z,921.94
2018-03-16T05:46:16.660Z,921.98
2018-03-16T05:47:16.655Z,921.97
2018-03-16T05:48:16.652Z,922.01
2018-03-16T05:49:16.646Z,922.04
2018-03-16T05:50:16.642Z,922.05
2018-03-16T05:51:16.638Z,922.01
2018-03-16T05:52:16.635Z,921.99
2018-03-16T05:53:16.631Z,921.98
2018-03-16T05:54:16.623Z,922.04
2018-03-16T05:55:16.621Z,922.05
2018-03-16T05:56:16.620Z,922.04
2018-03-16T05:57:16.613Z,922.00
2018-03-16T05:58:16.606Z,922.01
2018-03-16T05:59:16.602Z,922.03
2018-03-16T06:00:16.598Z,922.00
2018-03-16T06:01:16.595Z,922.02
2018-03-16T06:02:16.589Z,922.07
2018-03-16T06:03:16.585Z,922.09
2018-03-16T06:04:16.581Z,922.13
2018-03-16T06:05:16.622Z,922.12
2018-03-16T06:06:16.571Z,922.14
2018-03-16T06:07:16.567Z,922.16
2018-03-16T06:08:16.563Z,922.13
2018-03-16T06:09:16.558Z,922.15
2018-03-16T06:10:16.553Z,922.21
2018-03-16T06:11:16.549Z,922.21
2018-03-16T06:12:16.545Z,922.15
2018-03-16T06:13:16.542Z,922.19
2018-03-16T06:14:16.537Z,922.24
2018-03-16T06:15:16.532Z,922.17
2018-03-16T06:16:16.528Z,922.20
2018-03-16T06:17:16.525Z,922.23
2018-03-16T06:18:16.519Z,922.25
2018-03-16T06:19:16.514Z,922.20
2018-03-16T06:20:16.512Z,922.20
2018-03-16T06:21:16.509Z,922.16
2018-03-16T06:22:16.502Z,922.24
2018-03-16T06:23:16.499Z,922.20
2018-03-16T06:24:16.495Z,922.23
2018-03-16T06:25:16.491Z,922.26
2018-03-16T06:26:16.486Z,922.23
2018-03-16T06:27:16.481Z,922.24
2018-03-16T06:28:16.479Z,922.27
2018-03-16T06:29:16.476Z,922.29
2018-03-16T06:30:16.470Z,922.30
2018-03-16T06:31:16.471Z,922.28
2018-03-16T06:32:16.513Z,922.31
2018-03-16T06:33:16.461Z,922.30
2018-03-16T06:34:16.454Z,922.27
2018-03-16T06:35:16.450Z,922.34
2018-03-16T06:36:16.447Z,922.35
2018-03-16T06:37:16.442Z,922.51
2018-03-16T06:38:16.438Z,922.50
2018-03-16T06:39:16.436Z,922.47
2018-03-16T06:40:16.431Z,922.46
2018-03-16T06:41:16.428Z,922.47
2018-03-16T06:42:16.427Z,922.43
2018-03-16T06:43:16.429Z,922.46
2018-03-16T06:44:16.418Z,922.39
2018-03-16T06:45:16.414Z,922.38
2018-03-16T06:46:16.410Z,922.39
2018-03-16T06:47:16.409Z,922.44
2018-03-16T06:48:16.407Z,922.42
2018-03-16T06:49:16.402Z,922.38
2018-03-16T06:50:16.398Z,922.44
2018-03-16T06:51:16.398Z,922.42
2018-03-16T06:52:16.393Z,922.45
2018-03-16T06:53:16.388Z,922.42
2018-03-16T06:54:16.697Z,922.45
2018-03-16T06:55:16.383Z,922.44
2018-03-16T06:56:16.379Z,922.51
2018-03-16T06:57:16.377Z,922.58
2018-03-16T06:58:16.373Z,922.65
2018-03-16T06:59:16.371Z,922.81
2018-03-16T07:00:16.369Z,922.90
2018-03-16T07:01:16.366Z,922.89
2018-03-16T07:02:16.371Z,922.82
2018-03-16T07:03:16.383Z,922.80
2018-03-16T07:04:16.363Z,922.82
2018-03-16T07:05:16.362Z,922.90
2018-03-16T07:06:16.361Z,922.88
2018-03-16T07:07:16.360Z,922.81
2018-03-16T07:08:16.360Z,922.89
2018-03-16T07:09:16.361Z,922.91
2018-03-16T07:10:16.362Z,922.82
2018-03-16T07:11:16.364Z,922.83
2018-03-16T07:12:16.361Z,922.87
2018-03-16T07:13:16.362Z,922.97
2018-03-16T07:14:16.361Z,922.92
2018-03-16T07:15:16.363Z,922.87
2018-03-16T07:16:16.524Z,922.85
2018-03-16T07:17:16.367Z,922.93
2018-03-16T07:18:16.365Z,922.96
2018-03-16T07:19:16.367Z,923.00
2018-03-16T07:20:16.367Z,922.98
2018-03-16T07:21:16.368Z,922.99
2018-03-16T07:22:16.368Z,923.00
2018-03-16T07:23:16.421Z,922.98
2018-03-16T07:24:16.370Z,923.07
2018-03-16T07:25:16.373Z,923.01
2018-03-16T07:26:16.370Z,923.04
2018-03-16T07:27:16.373Z,923.10
2018-03-16T07:28:16.373Z,923.12
2018-03-16T07:29:16.375Z,923.17
2018-03-16T07:30:16.375Z,923.21
2018-03-16T07:31:16.378Z,923.30
2018-03-16T07:32:16.380Z,923.26
2018-03-16T07:33:16.382Z,923.17
2018-03-16T07:34:16.385Z,923.14
2018-03-16T07:35:16.391Z,923.15
2018-03-16T07:36:16.392Z,923.16
2018-03-16T07:37:16.393Z,923.10
2018-03-16T07:38:16.531Z,923.09
2018-03-16T07:39:16.400Z,923.11
2018-03-16T07:40:16.408Z,923.08
2018-03-16T07:41:16.457Z,923.15
2018-03-16T07:42:16.408Z,923.21
2018-03-16T07:43:16.411Z,923.28
2018-03-16T07:44:16.416Z,923.34
2018-03-16T07:45:16.419Z,923.34
2018-03-16T07:46:16.422Z,923.36
2018-03-16T07:47:16.427Z,923.37
2018-03-16T07:48:16.437Z,923.32
2018-03-16T07:49:16.439Z,923.27
2018-03-16T07:50:16.442Z,923.28
2018-03-16T07:51:16.447Z,923.30
2018-03-16T07:52:16.454Z,923.29
2018-03-16T07:53:16.461Z,923.32
2018-03-16T07:54:16.465Z,923.34
2018-03-16T07:55:16.471Z,923.38
2018-03-16T07:56:16.478Z,923.37
2018-03-16T07:57:16.481Z,923.37
2018-03-16T07:58:16.486Z,923.27
2018-03-16T07:59:16.735Z,923.30
2018-03-16T08:00:16.499Z,923.30
2018-03-16T08:01:16.507Z,923.34
2018-03-16T08:02:16.511Z,923.31
2018-03-16T08:03:16.520Z,923.34
2018-03-16T08:04:16.525Z,923.35
2018-03-16T08:05:16.533Z,923.33
2018-03-16T08:06:16.539Z,923.28
2018-03-16T08:07:16.545Z,923.25
2018-03-16T08:08:16.552Z,923.27
2018-03-16T08:09:16.558Z,923.28
2018-03-16T08:10:16.566Z,923.32
2018-03-16T08:11:16.572Z,923.34
2018-03-16T08:12:16.577Z,923.37
2018-03-16T08:13:16.585Z,923.38
2018-03-16T08:14:16.590Z,923.36
2018-03-16T08:15:16.623Z,923.39
2018-03-16T08:16:16.604Z,923.38
2018-03-16T08:17:16.611Z,923.39
2018-03-16T08:18:16.617Z,923.37
2018-03-16T08:19:16.648Z,923.37
2018-03-16T08:20:16.631Z,923.42
2018-03-16T08:21:16.637Z,923.48
2018-03-16T08:22:16.644Z,923.50
2018-03-16T08:23:16.651Z,923.50
2018-03-16T08:24:16.656Z,923.48
2018-03-16T08:25:16.663Z,923.43
2018-03-16T08:26:16.669Z,923.50
2018-03-16T08:27:16.676Z,923.45
2018-03-16T08:28:16.728Z,923.42
2018-03-16T08:29:16.688Z,923.44
2018-03-16T08:30:16.693Z,923.43
2018-03-16T08:31:16.701Z,923.45
2018-03-16T08:32:16.706Z,923.42
2018-03-16T08:33:16.713Z,923.43
2018-03-16T08:34:16.720Z,923.47
2018-03-16T08:35:16.725Z,923.46
2018-03-16T08:36:16.737Z,923.46
2018-03-16T08:37:16.742Z,923.48
2018-03-16T08:38:16.744Z,923.46
2018-03-16T08:39:16.754Z,923.46
2018-03-16T08:40:16.760Z,923.47
2018-03-16T08:41:16.764Z,923.48
2018-03-16T08:42:16.770Z,923.49
2018-03-16T08:43:16.775Z,923.43
2018-03-16T08:44:16.783Z,923.38
2018-03-16T08:45:16.789Z,923.37
2018-03-16T08:46:16.794Z,923.33
2018-03-16T08:47:16.799Z,923.39
2018-03-16T08:48:16.804Z,923.33
2018-03-16T08:49:16.811Z,923.36
2018-03-16T08:50:16.814Z,923.27
2018-03-16T08:51:16.821Z,923.32
2018-03-16T08:52:16.826Z,923.30
2018-03-16T08:53:16.831Z,923.31
2018-03-16T08:54:16.835Z,923.28
2018-03-16T08:55:16.838Z,923.26
2018-03-16T08:56:16.842Z,923.26
2018-03-16T08:57:16.849Z,923.24
2018-03-16T08:58:16.852Z,923.25
2018-03-16T08:59:16.856Z,923.30
2018-03-16T09:00:16.863Z,923.34
2018-03-16T09:01:16.867Z,923.36
2018-03-16T09:02:16.873Z,923.34
2018-03-16T09:03:16.879Z,923.41
2018-03-16T09:04:16.887Z,923.38
2018-03-16T09:05:16.894Z,923.37
2018-03-16T09:06:16.900Z,923.33
2018-03-16T09:07:16.908Z,923.38
2018-03-16T09:08:16.918Z,923.42
2018-03-16T09:09:16.926Z,923.45
2018-03-16T09:10:16.931Z,923.47
2018-03-16T09:11:16.939Z,923.41
2018-03-16T09:12:16.949Z,923.46
2018-03-16T09:13:16.958Z,923.45
2018-03-16T09:14:16.965Z,923.40
2018-03-16T09:15:16.976Z,923.41
2018-03-16T09:16:16.987Z,923.45
2018-03-16T09:17:16.994Z,923.47
2018-03-16T09:18:17.005Z,923.40
2018-03-16T09:19:17.012Z,923.36
2018-03-16T09:20:17.021Z,923.33
2018-03-16T09:21:17.030Z,923.37
2018-03-16T09:22:17.041Z,923.37
2018-03-16T09:23:17.046Z,923.31
2018-03-16T09:24:17.056Z,923.28
2018-03-16T09:25:17.062Z,923.30
2018-03-16T09:26:17.069Z,923.32
2018-03-16T09:27:17.076Z,923.25
2018-03-16T09:28:17.085Z,923.26
2018-03-16T09:29:17.095Z,923.24
2018-03-16T09:30:17.097Z,923.26
2018-03-16T09:31:17.104Z,923.24
2018-03-16T09:32:17.110Z,923.27
2018-03-16T09:33:17.117Z,923.31
2018-03-16T09:34:17.123Z,923.22
2018-03-16T09:35:17.127Z,923.20
2018-03-16T09:36:17.134Z,923.21
2018-03-16T09:37:17.138Z,923.23
2018-03-16T09:38:17.142Z,923.21
2018-03-16T09:39:17.147Z,923.18
2018-03-16T09:40:17.151Z,923.20
2018-03-16T09:41:17.156Z,923.18
2018-03-16T09:42:17.160Z,923.28
2018-03-16T09:43:17.163Z,923.25
2018-03-16T09:44:17.168Z,923.25
2018-03-16T09:45:17.173Z,923.19
2018-03-16T09:46:17.177Z,923.20
2018-03-16T09:47:17.183Z,923.17
2018-03-16T09:48:17.188Z,923.18
2018-03-16T09:49:17.192Z,923.16
2018-03-16T09:50:17.196Z,923.14
2018-03-16T09:51:17.200Z,923.14
2018-03-16T09:52:17.204Z,923.16
2018-03-16T09:53:17.211Z,923.18
2018-03-16T09:54:17.214Z,923.13
2018-03-16T09:55:17.222Z,923.15
2018-03-16T09:56:17.249Z,923.15
2018-03-16T09:57:17.227Z,923.18
2018-03-16T09:58:17.232Z,923.18
2018-03-16T09:59:17.235Z,923.15
2018-03-16T10:00:17.240Z,923.22
2018-03-16T10:01:17.246Z,923.23
2018-03-16T10:02:17.249Z,923.22
2018-03-16T10:03:17.254Z,923.22
2018-03-16T10:04:17.260Z,923.18
2018-03-16T10:05:17.264Z,923.14
2018-03-16T10:06:17.742Z,923.18
2018-03-16T10:07:17.273Z,923.21
2018-03-16T10:08:17.279Z,923.23
2018-03-16T10:09:17.284Z,923.24
2018-03-16T10:10:17.288Z,923.20
2018-03-16T10:11:17.295Z,923.20
2018-03-16T10:12:17.302Z,923.23
2018-03-16T10:13:17.307Z,923.19
2018-03-16T10:14:17.311Z,923.21
2018-03-16T10:15:17.319Z,923.17
2018-03-16T10:16:17.325Z,923.18
2018-03-16T10:17:17.332Z,923.18
2018-03-16T10:18:17.336Z,923.19
2018-03-16T10:19:17.342Z,923.20
2018-03-16T10:20:17.349Z,923.20
2018-03-16T10:21:17.355Z,923.19
2018-03-16T10:22:17.361Z,923.17
2018-03-16T10:23:17.368Z,923.19
2018-03-16T10:24:17.373Z,923.21
2018-03-16T10:25:17.380Z,923.18
2018-03-16T10:26:17.384Z,923.14
2018-03-16T10:27:17.388Z,923.18
2018-03-16T10:28:17.395Z,923.10
2018-03-16T10:29:17.401Z,923.07
2018-03-16T10:30:17.404Z,923.08
2018-03-16T10:31:17.408Z,923.14
2018-03-16T10:32:17.415Z,923.06
2018-03-16T10:33:17.419Z,923.12
2018-03-16T10:34:17.422Z,923.14
2018-03-16T10:35:17.426Z,923.12
2018-03-16T10:36:17.430Z,923.14
2018-03-16T10:37:17.433Z,923.15
2018-03-16T10:38:17.436Z,923.11
2018-03-16T10:39:17.441Z,923.09
2018-03-16T10:40:17.442Z,923.09
2018-03-16T10:41:17.449Z,923.14
2018-03-16T10:42:17.449Z,923.12
2018-03-16T10:43:17.454Z,923.12
2018-03-16T10:44:17.458Z,923.13
2018-03-16T10:45:17.461Z,923.05
2018-03-16T10:46:17.465Z,923.07
2018-03-16T10:47:17.467Z,923.08
2018-03-16T10:48:17.471Z,923.07
2018-03-16T10:49:17.476Z,923.12
2018-03-16T10:50:17.478Z,923.10
2018-03-16T10:51:17.482Z,923.12
2018-03-16T10:52:17.485Z,923.14
2018-03-16T10:53:17.489Z,923.14
2018-03-16T10:54:17.584Z,923.11
2018-03-16T10:55:17.541Z,923.12
2018-03-16T10:56:17.499Z,923.07
2018-03-16T10:57:17.501Z,923.05
2018-03-16T10:58:17.504Z,923.07
2018-03-16T10:59:17.508Z,923.06
2018-03-16T11:00:17.511Z,923.10
2018-03-16T11:01:17.513Z,923.11
2018-03-16T11:02:17.516Z,923.08
2018-03-16T11:03:17.517Z,923.11
2018-03-16T11:04:17.520Z,923.09
2018-03-16T11:05:17.522Z,923.06
2018-03-16T11:06:17.525Z,923.05
2018-03-16T11:07:17.526Z,923.04
2018-03-16T11:08:17.531Z,923.01
2018-03-16T11:09:17.543Z,923.00
2018-03-16T11:10:17.533Z,922.98
2018-03-16T11:11:17.536Z,922.95
2018-03-16T11:12:17.539Z,922.94
2018-03-16T11:13:17.541Z,922.95
2018-03-16T11:14:17.544Z,923.01
2018-03-16T11:15:17.543Z,922.98
2018-03-16T11:16:17.545Z,922.94
2018-03-16T11:17:17.572Z,922.95
2018-03-16T11:18:17.549Z,922.97
2018-03-16T11:19:17.550Z,922.96
2018-03-16T11:20:17.552Z,922.97
2018-03-16T11:21:17.555Z,922.98
2018-03-16T11:22:17.557Z,922.95
2018-03-16T11:23:17.556Z,922.99
2018-03-16T11:24:17.557Z,922.99
2018-03-16T11:25:17.558Z,922.99
2018-03-16T11:26:17.560Z,923.01
2018-03-16T11:27:17.561Z,923.01
2018-03-16T11:28:17.562Z,923.02
2018-03-16T11:29:17.562Z,923.04
2018-03-16T11:30:17.562Z,923.07
2018-03-16T11:31:17.564Z,923.05
2018-03-16T11:32:17.565Z,923.09
2018-03-16T11:33:17.565Z,923.07
2018-03-16T11:34:17.571Z,923.08
2018-03-16T11:35:17.570Z,923.08
2018-03-16T11:36:17.567Z,923.06
2018-03-16T11:37:17.569Z,923.08
2018-03-16T11:38:17.568Z,923.11
2018-03-16T11:39:17.572Z,923.12
2018-03-16T11:40:17.572Z,923.10
2018-03-16T11:41:17.572Z,923.10
2018-03-16T11:42:17.573Z,923.10
2018-03-16T11:43:17.574Z,923.06
2018-03-16T11:44:17.578Z,923.04
2018-03-16T11:45:17.578Z,923.11
2018-03-16T11:46:17.578Z,923.09
2018-03-16T11:47:17.579Z,923.11
2018-03-16T11:48:17.580Z,923.15
2018-03-16T11:49:17.584Z,923.15
2018-03-16T11:50:17.585Z,923.11
2018-03-16T11:51:17.592Z,923.13
2018-03-16T11:52:17.591Z,923.13
2018-03-16T11:53:17.593Z,923.08
2018-03-16T11:54:17.595Z,923.03
2018-03-16T11:55:17.600Z,923.05
2018-03-16T11:56:17.805Z,923.06
2018-03-16T11:57:17.606Z,923.06
2018-03-16T11:58:17.608Z,923.06
2018-03-16T11:59:17.610Z,923.03
2018-03-16T12:00:17.613Z,923.02
2018-03-16T12:01:17.615Z,922.98
2018-03-16T12:02:17.618Z,923.02
2018-03-16T12:03:17.622Z,922.98
2018-03-16T12:04:17.623Z,923.01
2018-03-16T12:05:17.633Z,922.96
2018-03-16T12:06:17.626Z,923.05
2018-03-16T12:07:17.628Z,923.02
2018-03-16T12:08:17.630Z,923.01
2018-03-16T12:09:17.633Z,922.98
2018-03-16T12:10:17.935Z,922.98
2018-03-16T12:11:17.640Z,923.02
2018-03-16T12:12:17.636Z,922.98
2018-03-16T12:13:17.640Z,922.98
2018-03-16T12:14:17.640Z,923.00
2018-03-16T12:15:17.641Z,922.98
2018-03-16T12:16:17.644Z,922.95
2018-03-16T12:17:17.645Z,922.98
2018-03-16T12:18:17.674Z,922.96
2018-03-16T12:19:17.647Z,923.01
2018-03-16T12:20:17.648Z,922.93
2018-03-16T12:21:17.652Z,922.93
2018-03-16T12:22:17.651Z,922.93
2018-03-16T12:23:17.652Z,922.91
2018-03-16T12:24:17.677Z,922.89
2018-03-16T12:25:17.655Z,922.87
2018-03-16T12:26:17.656Z,922.88
2018-03-16T12:27:17.658Z,922.87
2018-03-16T12:28:17.658Z,922.85
2018-03-16T12:29:17.796Z,922.89